Time;durP1;ratioP1;P1;durP2;ratioP2;P2;SDS_P1;SDS_P2;PMS_P1;PMS_P2;Temp;Humidity;BMP_temperature;BMP_pressure;BME280_temperature;BME280_humidity;BME280_pressure;Samples;Min_cycle;Max_cycle;Signal;HPM_P1;HPM_P2
2024/01/31 00:01:34;;;;;;;13.10;5.00;;;;;;;2.73;53.83;102257.25;109078;1256;64124;-61
2024/01/31 00:04:02;;;;;;;14.90;5.50;;;;;;;2.73;53.87;102256.39;109079;1254;58750;-58
2024/01/31 00:06:30;;;;;;;15.60;6.40;;;;;;;2.75;53.91;102256.52;109041;1253;58469;-58
2024/01/31 00:09:00;;;;;;;13.90;6.30;;;;;;;2.76;53.74;102252.34;107462;1255;65936;-62
2024/01/31 00:11:31;;;;;;;11.40;6.20;;;;;;;2.77;53.68;102251.63;108356;1254;61330;-60
2024/01/31 00:13:58;;;;;;;12.50;5.90;;;;;;;2.77;53.63;102249.73;105098;1258;76744;-59
2024/01/31 00:16:26;;;;;;;12.80;6.30;;;;;;;2.76;53.64;102249.58;105125;1257;60648;-60
2024/01/31 00:18:54;;;;;;;14.10;6.60;;;;;;;2.75;53.76;102246.48;105040;1259;60374;-63
2024/01/31 00:21:22;;;;;;;16.30;6.40;;;;;;;2.74;53.81;102245.96;105252;1258;64917;-59
2024/01/31 00:23:52;;;;;;;17.10;5.90;;;;;;;2.73;53.85;102246.33;106030;1255;60451;-62
2024/01/31 00:26:20;;;;;;;17.40;6.40;;;;;;;2.75;53.85;102246.80;106815;1256;63756;-60
2024/01/31 00:28:47;;;;;;;13.20;6.50;;;;;;;2.77;53.75;102244.17;105093;1253;60511;-61
2024/01/31 00:31:15;;;;;;;20.20;8.10;;;;;;;2.77;53.68;102242.27;105470;1254;60424;-62
2024/01/31 00:33:42;;;;;;;14.40;5.10;;;;;;;2.73;53.70;102242.68;105055;1254;64938;-61
2024/01/31 00:36:11;;;;;;;10.00;3.60;;;;;;;2.77;53.71;102246.08;105114;1253;61412;-59
2024/01/31 00:38:38;;;;;;;9.30;3.70;;;;;;;2.86;53.61;102246.45;105033;1257;63670;-60
2024/01/31 00:41:06;;;;;;;11.80;4.90;;;;;;;2.97;53.61;102250.06;105207;1258;60434;-61
2024/01/31 00:43:34;;;;;;;11.40;4.80;;;;;;;3.07;53.50;102248.52;105144;1256;60502;-58
2024/01/31 00:46:05;;;;;;;11.20;4.60;;;;;;;3.15;53.46;102243.66;105235;1254;64994;-60
2024/01/31 00:48:33;;;;;;;11.30;4.50;;;;;;;3.22;53.44;102242.85;105132;1257;60324;-60
2024/01/31 00:51:00;;;;;;;11.70;5.50;;;;;;;3.26;53.41;102239.81;105159;1257;63814;-61
2024/01/31 00:53:28;;;;;;;12.20;6.00;;;;;;;3.26;53.32;102234.43;105161;1258;60899;-59
2024/01/31 00:55:55;;;;;;;11.90;5.00;;;;;;;3.27;53.29;102229.39;105888;1258;60556;-59
2024/01/31 00:58:23;;;;;;;15.00;5.60;;;;;;;3.27;53.21;102232.86;104965;1259;64928;-59
2024/01/31 01:00:50;;;;;;;11.90;6.40;;;;;;;3.25;53.08;102229.41;105089;1257;61500;-61
2024/01/31 01:03:19;;;;;;;11.20;5.70;;;;;;;3.22;53.06;102224.27;105176;1257;63736;-59
2024/01/31 01:05:47;;;;;;;12.20;6.20;;;;;;;3.17;52.95;102222.13;105430;1253;60534;-61
2024/01/31 01:08:15;;;;;;;13.60;4.50;;;;;;;3.09;52.89;102224.01;106083;1256;60437;-61
2024/01/31 01:10:42;;;;;;;10.70;5.30;;;;;;;3.02;52.98;102223.60;108762;1254;64930;-60
2024/01/31 01:13:10;;;;;;;16.20;6.70;;;;;;;2.97;53.06;102221.45;105220;1253;61431;-62
2024/01/31 01:15:38;;;;;;;11.60;5.50;;;;;;;2.94;53.08;102216.14;105188;1259;64290;-61
2024/01/31 01:18:05;;;;;;;13.20;6.00;;;;;;;2.91;53.14;102206.49;105080;1257;60574;-61
2024/01/31 01:20:33;;;;;;;12.70;4.80;;;;;;;2.86;53.26;102196.70;105220;1253;60445;-60
2024/01/31 01:23:01;;;;;;;11.60;4.60;;;;;;;2.81;53.33;102198.52;105126;1259;64910;-61
2024/01/31 01:25:28;;;;;;;12.70;5.70;;;;;;;2.76;53.32;102202.08;105869;1253;62173;-61
2024/01/31 01:27:56;;;;;;;14.40;4.60;;;;;;;2.73;53.40;102198.86;105040;1259;62613;-62
2024/01/31 01:30:23;;;;;;;14.00;5.40;;;;;;;2.68;53.53;102197.36;105398;1259;60491;-61
2024/01/31 01:32:52;;;;;;;13.90;5.80;;;;;;;2.65;53.64;102199.86;105300;1253;60543;-60
2024/01/31 01:35:19;;;;;;;13.10;4.60;;;;;;;2.61;53.61;102198.70;105135;1254;64956;-61
2024/01/31 01:37:48;;;;;;;13.80;6.60;;;;;;;2.57;53.75;102192.20;105835;1253;61415;-62
2024/01/31 01:40:16;;;;;;;17.60;6.00;;;;;;;2.53;53.85;102187.59;105456;1257;63719;-62
2024/01/31 01:42:44;;;;;;;17.00;6.60;;;;;;;2.50;53.93;102190.94;105352;1257;60722;-62
2024/01/31 01:45:12;;;;;;;11.30;5.50;;;;;;;2.44;53.97;102189.30;105564;1253;60483;-60
2024/01/31 01:47:42;;;;;;;12.20;6.00;;;;;;;2.37;54.13;102188.21;105516;1254;64938;-60
2024/01/31 01:50:10;;;;;;;15.40;7.00;;;;;;;2.34;54.23;102187.36;105583;1256;61353;-67
2024/01/31 01:52:37;;;;;;;13.50;6.00;;;;;;;2.32;54.35;102186.20;105702;1254;63689;-61
2024/01/31 01:55:06;;;;;;;11.10;4.50;;;;;;;2.30;54.28;102186.77;105583;1257;62887;-61
2024/01/31 01:57:38;;;;;;;11.60;3.30;;;;;;;2.30;54.26;102182.95;105638;1253;60560;-61
2024/01/31 02:00:12;;;;;;;8.40;3.30;;;;;;;2.34;54.33;102175.08;106454;1256;65128;-62
2024/01/31 02:02:40;;;;;;;8.90;3.50;;;;;;;2.41;54.41;102172.02;105626;1256;61339;-63
2024/01/31 02:05:08;;;;;;;11.50;4.40;;;;;;;2.52;54.59;102178.77;105168;1254;63663;-60
2024/01/31 02:07:36;;;;;;;10.20;4.30;;;;;;;2.64;54.45;102190.17;105630;1254;60937;-60
2024/01/31 02:10:05;;;;;;;9.20;4.10;;;;;;;2.72;54.20;102185.70;105612;1253;60554;-60
2024/01/31 02:12:33;;;;;;;9.90;4.80;;;;;;;2.75;54.06;102179.23;105694;1256;65065;-62
2024/01/31 02:15:00;;;;;;;10.70;4.40;;;;;;;2.73;54.19;102174.23;105137;1257;61334;-62
2024/01/31 02:17:28;;;;;;;12.20;5.10;;;;;;;2.73;54.25;102170.42;105260;1258;71054;-60
2024/01/31 02:19:56;;;;;;;14.80;5.70;;;;;;;2.73;54.17;102172.86;105857;1259;60559;-62
2024/01/31 02:22:23;;;;;;;14.40;7.00;;;;;;;2.71;54.10;102168.21;105240;1259;60360;-62
2024/01/31 02:24:51;;;;;;;11.70;5.60;;;;;;;2.69;54.04;102168.08;105282;1254;64929;-60
2024/01/31 02:27:20;;;;;;;13.10;5.60;;;;;;;2.64;54.11;102165.75;105225;1259;60454;-60
2024/01/31 02:29:48;;;;;;;11.10;4.50;;;;;;;2.62;54.36;102167.67;105111;1257;63860;-60
2024/01/31 02:32:15;;;;;;;12.90;5.30;;;;;;;2.63;54.44;102169.39;105174;1254;60565;-61
2024/01/31 02:34:43;;;;;;;11.50;6.50;;;;;;;2.62;54.40;102166.80;105134;1259;60566;-62
2024/01/31 02:37:10;;;;;;;12.30;5.60;;;;;;;2.59;54.36;102170.84;105139;1254;63670;-62
2024/01/31 02:39:38;;;;;;;9.50;4.60;;;;;;;2.57;54.48;102169.50;105249;1253;61889;-60
2024/01/31 02:42:05;;;;;;;13.10;5.60;;;;;;;2.55;54.57;102167.80;105193;1257;63738;-60
2024/01/31 02:44:33;;;;;;;12.00;6.00;;;;;;;2.53;54.72;102164.90;105858;1254;60505;-60
2024/01/31 02:47:01;;;;;;;11.90;6.40;;;;;;;2.54;54.72;102165.05;105204;1253;61391;-62
2024/01/31 02:49:28;;;;;;;18.50;6.80;;;;;;;2.55;54.70;102165.03;105197;1254;64963;-60
2024/01/31 02:51:56;;;;;;;13.00;7.30;;;;;;;2.54;54.81;102156.73;105156;1253;61699;-60
2024/01/31 02:54:24;;;;;;;16.00;6.60;;;;;;;2.54;54.88;102162.10;105112;1257;62514;-56
2024/01/31 02:56:51;;;;;;;13.60;6.20;;;;;;;2.54;54.79;102165.05;105067;1256;60498;-59
2024/01/31 02:59:22;;;;;;;11.50;5.70;;;;;;;2.52;54.76;102161.98;105262;1257;60617;-59
2024/01/31 03:01:50;;;;;;;13.20;6.20;;;;;;;2.49;54.73;102160.81;105227;1254;63854;-60
2024/01/31 03:04:18;;;;;;;13.90;6.90;;;;;;;2.48;54.77;102153.91;105238;1253;61329;-60
2024/01/31 03:06:45;;;;;;;20.10;7.80;;;;;;;2.46;54.82;102146.33;105374;1254;64300;-60
2024/01/31 03:09:13;;;;;;;10.80;5.00;;;;;;;2.47;54.79;102144.38;105239;1257;60705;-58
2024/01/31 03:11:41;;;;;;;10.40;3.80;;;;;;;2.51;54.70;102140.52;105226;1253;60491;-59
2024/01/31 03:14:08;;;;;;;10.70;4.60;;;;;;;2.57;54.69;102135.55;105270;1254;64917;-61
2024/01/31 03:16:39;;;;;;;10.40;3.70;;;;;;;2.65;54.72;102141.48;105106;1253;61347;-58
2024/01/31 03:19:08;;;;;;;9.70;2.80;;;;;;;2.72;54.58;102138.02;106361;1254;63888;-59
2024/01/31 03:21:36;;;;;;;9.60;4.10;;;;;;;2.79;54.52;102134.09;105178;1259;60441;-58
2024/01/31 03:24:04;;;;;;;10.30;4.40;;;;;;;2.81;54.44;102130.94;105245;1260;62898;-58
2024/01/31 03:26:32;;;;;;;11.10;5.10;;;;;;;2.80;54.44;102133.55;105701;1259;64909;-57
2024/01/31 03:29:01;;;;;;;11.00;4.30;;;;;;;2.80;54.39;102135.80;105301;1253;61355;-60
2024/01/31 03:31:29;;;;;;;11.20;4.40;;;;;;;2.78;54.29;102139.83;105749;1257;63770;-59
2024/01/31 03:33:57;;;;;;;12.30;4.60;;;;;;;2.76;54.22;102134.15;105252;1254;60555;-60
2024/01/31 03:36:25;;;;;;;10.60;4.60;;;;;;;2.72;54.19;102128.85;105209;1256;60357;-59
2024/01/31 03:38:58;;;;;;;10.40;4.60;;;;;;;2.68;54.27;102123.73;105194;1253;63661;-56
2024/01/31 03:41:26;;;;;;;15.30;5.00;;;;;;;2.64;54.38;102125.71;105828;1253;61298;-56
2024/01/31 03:43:54;;;;;;;10.40;6.20;;;;;;;2.61;54.33;102127.33;105099;1259;62477;-60
2024/01/31 03:46:24;;;;;;;12.30;4.40;;;;;;;2.58;54.41;102122.55;106182;1253;60390;-60
2024/01/31 03:48:52;;;;;;;13.20;4.70;;;;;;;2.56;54.47;102120.14;105137;1260;60604;-56
2024/01/31 03:51:20;;;;;;;12.00;4.70;;;;;;;2.56;54.51;102118.94;105111;1259;64852;-59
2024/01/31 03:53:48;;;;;;;11.90;4.40;;;;;;;2.55;54.52;102118.95;105360;1258;61793;-58
2024/01/31 03:56:16;;;;;;;10.70;4.90;;;;;;;2.53;54.51;102114.83;105363;1259;62432;-62
2024/01/31 03:58:44;;;;;;;14.80;7.80;;;;;;;2.53;54.54;102115.36;107062;1254;60506;-61
2024/01/31 04:01:15;;;;;;;16.10;8.70;;;;;;;2.54;54.53;102118.97;105255;1254;60447;-62
2024/01/31 04:03:44;;;;;;;14.70;6.80;;;;;;;2.54;54.57;102121.55;105409;1253;65490;-65
2024/01/31 04:06:12;;;;;;;20.50;8.10;;;;;;;2.55;54.50;102121.89;105384;1256;61404;-62
2024/01/31 04:08:40;;;;;;;26.80;14.80;;;;;;;2.54;54.55;102117.59;105286;1254;63762;-61
2024/01/31 04:11:07;;;;;;;38.90;18.40;;;;;;;2.53;54.58;102110.66;105198;1256;60437;-60
2024/01/31 04:13:36;;;;;;;30.60;18.00;;;;;;;2.54;54.61;102109.08;105273;1257;60563;-60
2024/01/31 04:16:05;;;;;;;12.90;6.80;;;;;;;2.57;54.48;102110.27;105715;1254;64922;-60
2024/01/31 04:18:32;;;;;;;12.70;6.50;;;;;;;2.64;54.24;102111.50;105726;1253;61392;-59
2024/01/31 04:21:00;;;;;;;12.50;5.10;;;;;;;2.69;54.21;102114.17;105131;1256;63750;-60
2024/01/31 04:23:28;;;;;;;9.90;4.70;;;;;;;2.74;54.14;102118.77;105235;1254;60555;-60
2024/01/31 04:25:55;;;;;;;7.90;3.20;;;;;;;2.82;54.14;102113.93;105215;1256;60367;-61
2024/01/31 04:28:24;;;;;;;8.20;4.00;;;;;;;2.92;54.04;102114.25;105180;1258;64974;-60
2024/01/31 04:30:52;;;;;;;15.20;5.70;;;;;;;2.98;53.94;102114.98;105330;1254;61572;-59
2024/01/31 04:33:22;;;;;;;13.40;5.60;;;;;;;3.02;53.95;102115.08;104963;1259;63682;-58
2024/01/31 04:35:50;;;;;;;13.20;4.30;;;;;;;3.03;53.80;102112.11;105351;1259;60572;-58
2024/01/31 04:38:18;;;;;;;11.10;4.40;;;;;;;3.03;53.79;102111.42;105128;1259;60039;-59
2024/01/31 04:40:45;;;;;;;15.50;6.00;;;;;;;3.02;53.69;102112.48;105177;1253;66859;-59
2024/01/31 04:43:15;;;;;;;16.10;5.80;;;;;;;3.02;53.65;102107.45;105095;1259;60467;-61
2024/01/31 04:45:44;;;;;;;13.00;5.00;;;;;;;2.98;53.63;102108.23;105179;1253;63754;-59
2024/01/31 04:48:12;;;;;;;89.80;42.00;;;;;;;2.92;53.53;102109.75;105098;1261;60441;-60
2024/01/31 04:50:40;;;;;;;46.80;25.00;;;;;;;2.85;53.52;102111.96;105486;1259;60374;-64
2024/01/31 04:53:08;;;;;;;27.40;16.60;;;;;;;2.78;53.62;102104.65;105193;1253;64884;-63
2024/01/31 04:55:36;;;;;;;16.70;8.20;;;;;;;2.72;53.67;102101.48;105161;1255;61341;-62
2024/01/31 04:58:04;;;;;;;18.80;9.10;;;;;;;2.65;53.71;102096.59;105267;1254;63773;-60
2024/01/31 05:00:32;;;;;;;12.20;6.80;;;;;;;2.59;53.74;102089.25;105129;1257;60479;-63
2024/01/31 05:02:59;;;;;;;12.40;5.80;;;;;;;2.53;53.86;102079.51;104989;1259;60354;-63
2024/01/31 05:05:27;;;;;;;14.00;4.10;;;;;;;2.47;53.98;102077.54;105183;1259;63629;-63
2024/01/31 05:07:54;;;;;;;13.40;5.30;;;;;;;2.40;54.09;102074.70;105244;1258;61510;-59
2024/01/31 05:10:22;;;;;;;10.00;4.90;;;;;;;2.36;54.16;102073.04;105168;1254;63776;-61
2024/01/31 05:12:50;;;;;;;10.50;4.50;;;;;;;2.35;54.22;102075.14;105213;1257;60565;-58
2024/01/31 05:15:17;;;;;;;10.70;3.80;;;;;;;2.42;54.25;102076.92;105219;1254;60557;-64
2024/01/31 05:17:45;;;;;;;15.00;5.30;;;;;;;2.51;54.15;102079.52;105201;1259;65358;-64
2024/01/31 05:20:12;;;;;;;7.00;2.80;;;;;;;2.59;54.09;102086.13;105011;1262;60464;-67
2024/01/31 05:22:40;;;;;;;9.30;3.60;;;;;;;2.67;54.03;102088.39;105060;1260;64295;-67
2024/01/31 05:25:08;;;;;;;13.80;5.50;;;;;;;2.78;53.90;102083.49;105416;1254;60568;-64
2024/01/31 05:27:36;;;;;;;10.70;4.50;;;;;;;2.87;53.89;102079.51;106292;1259;60431;-64
2024/01/31 05:30:04;;;;;;;10.70;4.90;;;;;;;2.92;53.72;102077.14;108051;1255;64852;-62
2024/01/31 05:32:32;;;;;;;9.10;3.70;;;;;;;2.94;53.62;102075.36;105119;1254;61376;-59
2024/01/31 05:35:00;;;;;;;14.30;5.70;;;;;;;2.94;53.41;102078.30;105147;1256;62448;-68
2024/01/31 05:37:27;;;;;;;14.70;6.70;;;;;;;2.93;53.41;102082.68;105153;1254;60501;-66
2024/01/31 05:39:55;;;;;;;21.10;11.70;;;;;;;2.91;53.41;102083.42;105206;1259;60447;-67
2024/01/31 05:42:23;;;;;;;72.20;31.90;;;;;;;2.91;53.37;102086.71;105112;1259;65004;-65
2024/01/31 05:44:53;;;;;;;31.10;14.40;;;;;;;2.90;53.45;102091.41;104990;1258;60536;-61
2024/01/31 05:47:21;;;;;;;21.00;7.60;;;;;;;2.85;53.40;102085.27;105064;1256;63771;-68
2024/01/31 05:49:49;;;;;;;16.20;7.40;;;;;;;2.79;53.42;102082.45;106126;1259;60511;-65
2024/01/31 05:52:16;;;;;;;16.30;7.90;;;;;;;2.75;53.48;102078.00;105152;1254;60382;-66
2024/01/31 05:54:44;;;;;;;12.50;5.40;;;;;;;2.74;53.50;102075.95;105036;1255;65434;-56
2024/01/31 05:57:11;;;;;;;12.20;6.00;;;;;;;2.72;53.56;102075.13;104981;1259;60374;-63
2024/01/31 05:59:41;;;;;;;13.20;5.10;;;;;;;2.72;53.61;102072.70;105072;1259;62484;-63
2024/01/31 06:02:09;;;;;;;13.70;5.60;;;;;;;2.73;53.50;102073.04;105487;1254;60580;-64
2024/01/31 06:04:36;;;;;;;12.70;5.00;;;;;;;2.74;53.58;102073.36;105725;1259;60447;-59
2024/01/31 06:07:04;;;;;;;13.10;5.50;;;;;;;2.74;53.62;102070.58;105190;1253;65372;-62
2024/01/31 06:09:32;;;;;;;12.20;4.50;;;;;;;2.74;53.52;102070.40;105158;1259;60699;-62
2024/01/31 06:12:00;;;;;;;12.60;4.90;;;;;;;2.73;53.56;102066.42;105704;1256;63761;-62
2024/01/31 06:14:27;;;;;;;12.40;6.40;;;;;;;2.72;53.65;102063.34;105830;1254;61304;-61
2024/01/31 06:16:55;;;;;;;12.30;6.30;;;;;;;2.73;53.70;102059.33;105279;1254;60506;-63
2024/01/31 06:19:23;;;;;;;10.20;4.80;;;;;;;2.75;53.75;102056.36;105038;1253;64867;-65
2024/01/31 06:21:50;;;;;;;37.30;5.10;;;;;;;2.81;53.65;102053.80;105357;1259;61309;-56
2024/01/31 06:24:18;;;;;;;10.40;3.80;;;;;;;2.95;53.50;102052.30;105106;1254;62486;-61
2024/01/31 06:26:45;;;;;;;10.30;4.90;;;;;;;3.08;53.36;102056.34;105125;1255;60651;-59
2024/01/31 06:29:18;;;;;;;10.80;5.00;;;;;;;3.20;53.24;102058.35;105154;1259;59618;-60
2024/01/31 06:31:48;;;;;;;12.30;4.30;;;;;;;3.33;53.10;102053.88;104968;1259;64892;-59
2024/01/31 06:34:16;;;;;;;9.70;4.40;;;;;;;3.43;53.00;102051.55;105227;1257;61320;-58
2024/01/31 06:36:44;;;;;;;12.00;4.90;;;;;;;3.49;52.86;102050.55;105276;1254;63705;-58
2024/01/31 06:39:12;;;;;;;18.40;13.10;;;;;;;3.54;52.68;102055.64;105086;1253;60436;-60
2024/01/31 06:41:39;;;;;;;9.80;5.20;;;;;;;3.59;52.47;102058.50;105054;1254;60443;-58
2024/01/31 06:44:07;;;;;;;12.00;5.90;;;;;;;3.62;52.32;102064.67;105077;1263;63761;-60
2024/01/31 06:46:34;;;;;;;12.80;6.00;;;;;;;3.64;52.15;102064.62;105206;1259;62562;-60
2024/01/31 06:49:02;;;;;;;16.00;5.30;;;;;;;3.64;52.08;102062.71;105082;1256;63722;-60
2024/01/31 06:51:31;;;;;;;10.80;5.40;;;;;;;3.67;51.98;102064.90;105096;1254;60518;-61
2024/01/31 06:53:59;;;;;;;11.90;4.70;;;;;;;3.68;51.97;102068.84;105199;1259;60355;-60
2024/01/31 06:56:26;;;;;;;12.70;5.50;;;;;;;3.71;51.95;102066.00;105224;1254;76659;-60
2024/01/31 06:58:56;;;;;;;11.70;5.70;;;;;;;3.71;51.76;102068.08;105145;1259;63213;-60
2024/01/31 07:01:26;;;;;;;10.00;6.10;;;;;;;3.72;51.69;102066.84;105469;1259;74905;-59
2024/01/31 07:03:54;;;;;;;15.70;6.00;;;;;;;3.75;51.73;102063.14;105914;1257;60533;-58
2024/01/31 07:06:21;;;;;;;11.90;4.70;;;;;;;3.78;51.66;102062.55;105125;1260;61646;-59
2024/01/31 07:08:49;;;;;;;17.40;6.40;;;;;;;3.81;51.64;102065.92;105146;1254;67570;-59
2024/01/31 07:11:17;;;;;;;15.70;6.10;;;;;;;3.83;51.65;102067.09;105458;1254;60550;-63
2024/01/31 07:13:45;;;;;;;12.00;5.40;;;;;;;3.86;51.65;102061.46;105115;1257;63710;-61
2024/01/31 07:16:12;;;;;;;10.40;4.90;;;;;;;3.89;51.55;102054.27;105066;1258;61142;-56
2024/01/31 07:18:41;;;;;;;12.70;5.00;;;;;;;3.89;51.45;102050.63;105556;1254;63000;-60
2024/01/31 07:21:10;;;;;;;11.20;6.40;;;;;;;3.89;51.50;102046.29;105458;1259;64871;-62
2024/01/31 07:23:40;;;;;;;11.90;5.70;;;;;;;3.94;51.56;102044.96;105023;1259;60530;-59
2024/01/31 07:26:08;;;;;;;13.80;6.10;;;;;;;3.99;51.64;102045.53;105190;1254;64768;-60
2024/01/31 07:28:39;;;;;;;11.10;5.50;;;;;;;4.02;51.47;102041.77;105121;1257;60555;-59
2024/01/31 07:31:06;;;;;;;11.70;4.60;;;;;;;4.06;51.35;102035.95;105058;1257;60488;-60
2024/01/31 07:33:34;;;;;;;14.90;7.00;;;;;;;4.09;51.26;102033.97;104926;1257;64918;-60
2024/01/31 07:36:03;;;;;;;27.60;12.00;;;;;;;4.11;51.16;102031.81;106401;1257;61437;-60
2024/01/31 07:38:30;;;;;;;16.50;5.80;;;;;;;4.16;51.11;102028.06;105494;1254;63855;-57
2024/01/31 07:40:58;;;;;;;17.30;8.70;;;;;;;4.17;51.00;102030.61;105565;1254;60847;-62
2024/01/31 07:43:26;;;;;;;49.50;22.40;;;;;;;4.18;50.90;102029.73;104705;1259;396339;-59
2024/01/31 07:48:22;;;;;;;27.90;12.30;;;;;;;3.81;51.62;102031.55;102195;1291;600992;-60
2024/01/31 07:50:49;;;;;;;28.40;13.60;;;;;;;4.14;50.87;102032.79;104209;1266;59248;-67
2024/01/31 07:53:19;;;;;;;27.20;11.80;;;;;;;4.20;50.77;102028.81;104468;1267;59416;-61
2024/01/31 07:55:47;;;;;;;34.30;17.60;;;;;;;4.23;50.73;102023.86;104219;1270;63335;-60
2024/01/31 07:58:15;;;;;;;23.70;12.10;;;;;;;4.25;50.72;102027.10;104119;1270;60539;-59
2024/01/31 08:00:42;;;;;;;14.30;5.70;;;;;;;4.29;50.68;102029.27;104487;1267;64861;-61
2024/01/31 08:03:10;;;;;;;10.70;6.50;;;;;;;4.31;50.53;102027.66;104440;1264;228555;-59
2024/01/31 08:05:38;;;;;;;13.50;6.30;;;;;;;4.33;50.56;102025.33;105098;1264;59246;-57
2024/01/31 08:08:06;;;;;;;10.00;4.00;;;;;;;4.36;50.46;102024.23;105161;1264;62095;-58
2024/01/31 08:10:33;;;;;;;10.40;4.50;;;;;;;4.36;50.44;102025.25;104520;1264;60551;-60
2024/01/31 08:13:03;;;;;;;12.50;5.50;;;;;;;4.38;50.40;102031.80;105164;1264;63887;-60
2024/01/31 08:15:31;;;;;;;8.60;3.70;;;;;;;4.40;50.35;102031.56;107342;1266;74906;-82
2024/01/31 08:17:59;;;;;;;12.00;5.20;;;;;;;4.42;50.29;102036.36;106737;1266;59704;-79
2024/01/31 08:20:26;;;;;;;11.90;4.90;;;;;;;4.43;50.19;102038.23;108104;1266;62960;-78
2024/01/31 08:22:54;;;;;;;13.50;5.10;;;;;;;4.48;50.13;102040.40;106931;1266;61344;-80
2024/01/31 08:25:22;;;;;;;13.50;6.10;;;;;;;4.51;50.01;102038.23;105608;1269;62501;-83
2024/01/31 08:27:51;;;;;;;13.50;7.90;;;;;;;4.53;50.06;102036.60;105594;1266;60357;-80
2024/01/31 08:30:21;;;;;;;14.90;7.00;;;;;;;4.57;50.07;102037.67;105363;1266;60973;-79
2024/01/31 08:32:49;;;;;;;13.90;6.20;;;;;;;4.61;50.00;102036.72;105389;1268;75250;-82
2024/01/31 08:35:16;;;;;;;12.60;5.10;;;;;;;4.63;49.83;102038.20;106824;1266;61448;-80
2024/01/31 08:37:44;;;;;;;13.90;5.10;;;;;;;4.67;49.76;102036.20;107806;1266;74878;-80
2024/01/31 08:40:12;;;;;;;13.20;5.50;;;;;;;4.70;49.73;102037.50;106819;1266;59388;-80
2024/01/31 08:42:42;;;;;;;13.70;5.60;;;;;;;4.71;49.67;102032.61;106580;1266;61204;-80
2024/01/31 08:45:10;;;;;;;13.30;6.40;;;;;;;4.72;49.66;102031.72;105824;1272;75328;-80
2024/01/31 08:47:38;;;;;;;15.00;5.80;;;;;;;4.73;49.65;102029.59;105610;1267;60409;-80
2024/01/31 08:50:06;;;;;;;14.80;6.30;;;;;;;4.75;49.65;102022.59;105448;1266;63857;-81
2024/01/31 08:52:34;;;;;;;18.70;7.20;;;;;;;4.77;49.70;102020.10;105461;1266;59759;-88
2024/01/31 08:55:01;;;;;;;35.60;6.20;;;;;;;4.78;49.73;102015.88;105592;1272;59597;-90
2024/01/31 08:57:29;;;;;;;17.20;7.60;;;;;;;4.82;49.81;102018.73;106615;1257;64638;-87
2024/01/31 08:59:57;;;;;;;12.70;6.50;;;;;;;4.88;49.72;102014.38;106715;1257;72603;-85
2024/01/31 09:02:24;;;;;;;20.60;5.60;;;;;;;4.92;49.58;102010.45;105853;1260;62631;-81
2024/01/31 09:04:52;;;;;;;12.70;4.80;;;;;;;4.95;49.30;102009.82;108138;1256;59699;-83
2024/01/31 09:07:19;;;;;;;17.00;8.10;;;;;;;4.99;49.24;102005.33;109363;1255;57392;-81
2024/01/31 09:09:47;;;;;;;14.70;8.20;;;;;;;5.06;49.17;102003.74;107448;1254;74066;-81
2024/01/31 09:12:15;;;;;;;13.90;7.20;;;;;;;5.12;48.95;102002.34;107956;1257;60150;-81
2024/01/31 09:14:42;;;;;;;24.50;8.00;;;;;;;5.19;48.80;102001.08;106139;1254;62602;-85
2024/01/31 09:17:10;;;;;;;14.20;7.30;;;;;;;5.28;48.57;101995.39;106557;1254;61416;-85
2024/01/31 09:19:37;;;;;;;12.90;6.50;;;;;;;5.35;48.52;101991.50;105925;1254;59650;-84
2024/01/31 09:22:06;;;;;;;12.50;7.40;;;;;;;5.44;48.34;101990.00;106165;1261;62982;-83
2024/01/31 09:24:35;;;;;;;13.90;5.70;;;;;;;5.54;48.18;101984.79;105901;1257;63892;-82
2024/01/31 09:27:02;;;;;;;15.10;6.70;;;;;;;5.67;47.70;101988.21;106747;1257;74953;-82
2024/01/31 09:29:30;;;;;;;13.70;5.90;;;;;;;5.72;46.94;101980.18;106210;1257;59690;-81
2024/01/31 09:31:59;;;;;;;23.80;14.80;;;;;;;5.73;46.73;101973.20;105929;1254;59795;-82
2024/01/31 09:34:27;;;;;;;14.90;7.20;;;;;;;5.73;46.50;101965.52;106605;1257;75293;-83
2024/01/31 09:36:55;;;;;;;14.50;5.90;;;;;;;5.75;46.52;101963.91;106660;1254;61559;-81
2024/01/31 09:39:23;;;;;;;13.00;6.40;;;;;;;5.78;46.62;101961.17;107486;1259;62695;-81
2024/01/31 09:41:50;;;;;;;13.30;6.20;;;;;;;5.85;46.53;101958.69;109097;1256;57705;-85
2024/01/31 09:44:18;;;;;;;21.70;14.70;;;;;;;5.92;46.42;101956.88;109186;1254;57361;-82
2024/01/31 09:46:45;;;;;;;10.40;5.30;;;;;;;6.03;46.34;101953.20;109157;1254;66396;-80
2024/01/31 09:49:14;;;;;;;13.80;6.80;;;;;;;6.11;45.99;101948.18;108670;1254;60856;-83
2024/01/31 09:51:41;;;;;;;12.80;6.40;;;;;;;6.19;45.57;101945.47;108833;1254;74231;-80
2024/01/31 09:54:09;;;;;;;18.10;14.00;;;;;;;6.24;45.49;101940.08;107839;1256;59669;-83
2024/01/31 09:56:37;;;;;;;16.00;6.50;;;;;;;6.29;45.55;101932.73;106737;1261;59594;-84
2024/01/31 09:59:05;;;;;;;16.00;6.50;;;;;;;6.38;45.59;101928.93;105659;1263;66192;-83
2024/01/31 10:01:32;;;;;;;13.20;6.20;;;;;;;6.47;45.48;101924.42;106394;1257;62460;-82
2024/01/31 10:04:00;;;;;;;22.90;14.50;;;;;;;6.58;45.48;101923.30;106246;1256;63885;-81
2024/01/31 10:06:28;;;;;;;17.00;7.20;;;;;;;6.65;44.88;101919.33;105912;1256;59558;-84
2024/01/31 10:08:57;;;;;;;11.00;4.70;;;;;;;6.71;44.72;101915.09;105846;1257;59794;-82
2024/01/31 10:11:25;;;;;;;18.40;7.00;;;;;;;6.78;44.77;101909.92;106176;1260;66383;-81
2024/01/31 10:13:54;;;;;;;12.30;5.40;;;;;;;6.87;44.73;101907.66;105954;1257;61692;-82
2024/01/31 10:16:24;;;;;;;18.10;12.00;;;;;;;6.96;44.41;101903.65;105766;1260;74901;-81
2024/01/31 10:18:52;;;;;;;11.50;3.70;;;;;;;7.01;43.83;101902.04;105893;1257;59687;-81
2024/01/31 10:21:19;;;;;;;12.60;5.50;;;;;;;7.03;43.51;101898.98;106806;1256;59525;-81
2024/01/31 10:24:02;;;;;;;12.90;5.00;;;;;;;7.04;43.66;101893.90;106731;1256;64393;-80
2024/01/31 10:26:33;;;;;;;10.40;4.20;;;;;;;7.06;44.00;101889.80;106382;1255;71412;-80
2024/01/31 10:29:02;;;;;;;13.30;5.90;;;;;;;7.07;44.00;101882.77;106080;1261;66023;-82
2024/01/31 10:31:37;;;;;;;13.00;5.10;;;;;;;7.12;44.00;101879.79;106039;1257;59654;-80
2024/01/31 10:34:07;;;;;;;12.50;4.80;;;;;;;7.13;43.83;101878.70;106753;1255;62310;-80
2024/01/31 10:36:36;;;;;;;12.50;5.10;;;;;;;7.13;43.67;101876.05;108119;1255;63242;-81
2024/01/31 10:39:09;;;;;;;20.10;11.90;;;;;;;7.12;43.62;101876.65;107663;1257;72692;-81
2024/01/31 10:41:40;;;;;;;14.20;5.90;;;;;;;7.12;43.60;101872.98;106514;1256;62537;-83
2024/01/31 10:44:10;;;;;;;11.40;4.80;;;;;;;7.14;43.48;101871.14;107222;1257;59666;-87
2024/01/31 10:46:39;;;;;;;20.90;12.70;;;;;;;7.17;43.50;101867.34;105812;1262;59743;-83
2024/01/31 10:49:08;;;;;;;12.00;5.40;;;;;;;7.20;43.47;101866.71;105787;1257;66504;-84
2024/01/31 10:51:36;;;;;;;16.20;6.10;;;;;;;7.25;43.62;101868.25;107844;1255;62474;-82
2024/01/31 10:54:04;;;;;;;11.50;4.70;;;;;;;7.33;43.47;101866.34;109085;1257;74066;-80
2024/01/31 10:56:32;;;;;;;21.10;12.60;;;;;;;7.42;43.52;101864.38;108741;1262;59680;-82
2024/01/31 10:59:00;;;;;;;11.90;4.70;;;;;;;7.54;43.20;101869.45;108382;1256;59614;-79
2024/01/31 11:01:30;;;;;;;23.70;13.30;;;;;;;7.60;42.75;101863.58;105936;1257;62908;-80
2024/01/31 11:04:00;;;;;;;10.00;5.10;;;;;;;7.66;42.62;101856.38;106019;1262;61481;-80
2024/01/31 11:06:40;;;;;;;20.00;12.10;;;;;;;7.71;42.58;101847.23;106227;1257;63918;-84
2024/01/31 11:09:22;;;;;;;9.20;4.20;;;;;;;7.81;42.76;101845.57;105991;1262;59663;-83
2024/01/31 11:12:01;;;;;;;24.50;13.60;;;;;;;7.97;42.65;101841.86;106279;1256;60005;-82
2024/01/31 11:14:29;;;;;;;14.30;5.00;;;;;;;8.12;42.66;101835.77;106430;1257;66673;-79
2024/01/31 11:17:06;;;;;;;23.60;12.30;;;;;;;8.26;42.39;101828.97;106210;1257;60331;-84
2024/01/31 11:19:55;;;;;;;13.50;5.50;;;;;;;8.41;42.13;101823.20;106408;1256;65232;-80
2024/01/31 11:22:22;;;;;;;19.20;12.30;;;;;;;8.55;41.78;101820.84;106062;1262;59953;-82
2024/01/31 11:24:52;;;;;;;22.20;12.60;;;;;;;8.61;41.26;101814.23;106769;1262;61007;-83